Time;durP1;ratioP1;P1;durP2;ratioP2;P2;SDS_P1;SDS_P2;PMS_P1;PMS_P2;Temp;Humidity;BMP_temperature;BMP_pressure;BME280_temperature;BME280_humidity;BME280_pressure;Samples;Min_cycle;Max_cycle;Signal;HPM_P1;HPM_P2
2021/10/01 00:00:30;;;;;;;;;;;;;;;21.34;54.04;101774.09;2075118;28;982;-59
2021/10/01 00:01:30;;;;;;;;;;;;;;;21.25;55.14;101771.59;2075023;28;795;-58
2021/10/01 00:02:30;;;;;;;;;;;;;;;21.26;55.52;101770.66;2075032;28;982;-58
2021/10/01 00:03:30;;;;;;;;;;;;;;;21.30;54.87;101775.06;2075144;28;752;-58
2021/10/01 00:04:31;;;;;;;;;;;;;;;21.31;54.53;101774.16;2074910;28;982;-58
2021/10/01 00:05:31;;;;;;;;;;;;;;;21.29;54.38;101767.91;2075152;28;779;-58
2021/10/01 00:06:31;;;;;;;;;;;;;;;21.27;55.08;101767.94;2075266;28;919;-58
2021/10/01 00:07:31;;;;;;;;;;;;;;;21.30;54.86;101772.38;2074946;28;843;-58
2021/10/01 00:08:32;;;;;;;;;;;;;;;21.27;54.74;101775.13;2074915;28;843;-58
2021/10/01 00:09:34;;;;;;;;;;;;;;;21.25;55.34;101769.78;2075048;28;871;-58
2021/10/01 00:10:34;;;;;;;;;;;;;;;21.26;54.58;101765.28;2075006;28;1898;-58
2021/10/01 00:11:34;;;;;;;;;;;;;;;21.27;55.31;101767.94;2075045;28;1084;-58
2021/10/01 00:12:34;;;;;;;;;;;;;;;21.28;54.90;101769.72;2075124;28;887;-58
2021/10/01 00:13:35;;;;;;;;;;;;;;;21.28;55.26;101768.81;2074880;28;906;-59
2021/10/01 00:14:36;;;;;;;;;;;;;;;21.32;54.69;101767.84;2074933;28;815;-58
2021/10/01 00:15:36;;;;;;;;;;;;;;;21.27;54.46;101764.34;2075162;28;823;-58
2021/10/01 00:16:36;;;;;;;;;;;;;;;21.26;55.15;101767.97;2075059;28;883;-58
2021/10/01 00:17:36;;;;;;;;;;;;;;;21.26;54.69;101767.97;2075087;28;1025;-59
2021/10/01 00:18:37;;;;;;;;;;;;;;;21.29;55.49;101766.13;2075085;28;799;-58
2021/10/01 00:19:38;;;;;;;;;;;;;;;21.25;54.98;101774.28;2075060;28;874;-58
2021/10/01 00:20:38;;;;;;;;;;;;;;;21.31;54.93;101779.53;2075179;28;835;-58
2021/10/01 00:21:38;;;;;;;;;;;;;;;21.27;55.19;101761.66;2075097;28;1009;-58
2021/10/01 00:22:39;;;;;;;;;;;;;;;21.25;54.37;101771.59;2075068;28;763;-58
2021/10/01 00:23:39;;;;;;;;;;;;;;;21.26;54.60;101774.25;2075066;28;832;-58
2021/10/01 00:24:39;;;;;;;;;;;;;;;21.27;54.79;101770.66;2075037;28;930;-59
2021/10/01 00:25:39;;;;;;;;;;;;;;;21.30;54.70;101773.28;2075062;28;974;-58
2021/10/01 00:26:40;;;;;;;;;;;;;;;21.30;53.67;101775.97;2074264;28;866;-58
2021/10/01 00:27:40;;;;;;;;;;;;;;;21.30;54.54;101769.69;2075307;28;723;-58
2021/10/01 00:28:41;;;;;;;;;;;;;;;21.31;54.09;101772.34;2076294;28;811;-58
2021/10/01 00:29:41;;;;;;;;;;;;;;;21.29;54.38;101776.00;2076712;28;986;-59
2021/10/01 00:30:41;;;;;;;;;;;;;;;21.27;54.53;101772.44;2076751;28;1977;-59
2021/10/01 00:31:41;;;;;;;;;;;;;;;21.29;54.84;101776.88;2076854;28;867;-58
2021/10/01 00:32:41;;;;;;;;;;;;;;;21.29;54.44;101776.00;2076685;28;906;-59
2021/10/01 00:33:42;;;;;;;;;;;;;;;21.32;54.92;101778.63;2076945;28;851;-59
2021/10/01 00:34:42;;;;;;;;;;;;;;;21.30;54.35;101767.88;2076654;28;843;-59
2021/10/01 00:35:42;;;;;;;;;;;;;;;21.30;54.24;101780.47;2076812;28;863;-58
2021/10/01 00:36:42;;;;;;;;;;;;;;;21.29;54.18;101778.69;2076694;28;1032;-59
2021/10/01 00:37:43;;;;;;;;;;;;;;;21.27;54.86;101777.81;2076531;28;840;-59
2021/10/01 00:38:43;;;;;;;;;;;;;;;21.25;55.41;101777.88;2076619;28;961;-59
2021/10/01 00:39:43;;;;;;;;;;;;;;;21.27;55.11;101776.03;2076768;28;763;-58
2021/10/01 00:40:43;;;;;;;;;;;;;;;21.25;55.15;101777.88;2076491;28;1061;-59
2021/10/01 00:41:43;;;;;;;;;;;;;;;21.23;54.94;101776.13;2076553;28;977;-58
2021/10/01 00:42:43;;;;;;;;;;;;;;;21.25;54.84;101774.28;2076633;28;746;-59
2021/10/01 00:43:44;;;;;;;;;;;;;;;21.27;55.04;101776.03;2074847;28;1558;-58
2021/10/01 00:44:44;;;;;;;;;;;;;;;21.28;54.98;101782.28;2068263;28;1001;-59
2021/10/01 00:45:44;;;;;;;;;;;;;;;21.29;54.89;101779.59;2068632;28;789;-59
2021/10/01 00:46:44;;;;;;;;;;;;;;;21.30;55.09;101785.84;2068358;28;907;-59
2021/10/01 00:47:44;;;;;;;;;;;;;;;21.28;54.45;101780.50;2068437;28;1013;-59
2021/10/01 00:48:44;;;;;;;;;;;;;;;21.29;54.29;101789.47;2068473;28;994;-58
2021/10/01 00:49:44;;;;;;;;;;;;;;;21.28;54.71;101782.28;2068403;28;816;-59
2021/10/01 00:50:45;;;;;;;;;;;;;;;21.27;55.20;101785.91;2068402;28;1966;-59
2021/10/01 00:51:45;;;;;;;;;;;;;;;21.24;54.53;101785.97;2068407;28;800;-59
2021/10/01 00:52:47;;;;;;;;;;;;;;;21.23;54.75;101785.09;2068243;28;1033;-59
2021/10/01 00:53:48;;;;;;;;;;;;;;;21.26;54.53;101785.03;2068504;28;776;-59
2021/10/01 00:54:48;;;;;;;;;;;;;;;21.23;55.69;101789.59;2068452;28;788;-58
2021/10/01 00:55:48;;;;;;;;;;;;;;;21.26;55.18;101789.53;2068328;28;980;-58
2021/10/01 00:56:48;;;;;;;;;;;;;;;21.24;55.17;101788.66;2068252;28;1327;-59
2021/10/01 00:57:48;;;;;;;;;;;;;;;21.26;54.85;101789.53;2068459;28;930;-58
2021/10/01 00:58:49;;;;;;;;;;;;;;;21.25;54.39;101787.75;2068481;28;1016;-58
2021/10/01 00:59:49;;;;;;;;;;;;;;;21.23;54.50;101792.28;2068469;28;780;-59
2021/10/01 01:02:08;;;;;;;;;;;;;;;21.25;55.13;101787.75;2069311;28;1329;-59
2021/10/01 01:03:08;;;;;;;;;;;;;;;21.27;55.20;101792.22;2076475;28;823;-59
2021/10/01 01:04:10;;;;;;;;;;;;;;;21.27;54.71;101789.50;2076549;28;985;-59
2021/10/01 01:05:10;;;;;;;;;;;;;;;21.23;54.42;101786.91;2075922;28;1153;-59
2021/10/01 01:06:16;;;;;;;;;;;;;;;21.25;54.97;101787.75;2075968;28;1016;-59
2021/10/01 01:07:22;;;;;;;;;;;;;;;21.27;54.47;101791.31;2076586;28;1009;-59
2021/10/01 01:08:25;;;;;;;;;;;;;;;21.27;54.42;101785.91;2076546;28;970;-58
2021/10/01 01:09:31;;;;;;;;;;;;;;;21.26;54.62;101784.13;2076459;28;1059;-59
2021/10/01 01:10:46;;;;;;;;;;;;;;;21.29;54.50;101781.38;2076235;28;1954;-58
2021/10/01 01:11:55;;;;;;;;;;;;;;;21.24;55.04;101796.75;2076090;28;1684;-59
2021/10/01 01:12:58;;;;;;;;;;;;;;;21.29;54.26;101784.97;2076042;28;965;-59
2021/10/01 01:14:14;;;;;;;;;;;;;;;21.27;54.16;101791.31;2076423;28;882;-59
2021/10/01 01:15:28;;;;;;;;;;;;;;;21.27;54.54;101783.22;2076413;28;787;-59
2021/10/01 01:16:31;;;;;;;;;;;;;;;21.23;54.71;101785.09;2076457;28;846;-59
2021/10/01 01:17:43;;;;;;;;;;;;;;;21.25;54.54;101782.34;2076365;28;835;-59
2021/10/01 01:18:47;;;;;;;;;;;;;;;21.22;54.73;101783.31;2076235;28;784;-59
2021/10/01 01:20:05;;;;;;;;;;;;;;;21.25;54.54;101783.25;2067690;28;1016;-59
2021/10/01 01:21:05;;;;;;;;;;;;;;;21.24;54.93;101786.88;2069985;28;961;-59
2021/10/01 01:22:19;;;;;;;;;;;;;;;21.24;54.99;101781.50;2075423;28;1427;-59
2021/10/01 01:23:39;;;;;;;;;;;;;;;21.23;55.35;101781.50;2075959;28;834;-59
2021/10/01 01:24:46;;;;;;;;;;;;;;;21.24;55.34;101780.59;2076372;28;922;-59
2021/10/01 01:25:54;;;;;;;;;;;;;;;21.25;54.53;101779.66;2076409;28;1024;-59
2021/10/01 01:27:09;;;;;;;;;;;;;;;21.21;54.59;101775.25;2076112;28;822;-59
2021/10/01 01:28:25;;;;;;;;;;;;;;;21.23;55.25;101777.03;2076366;28;910;-59
2021/10/01 01:29:37;;;;;;;;;;;;;;;21.22;55.25;101779.72;2076378;28;1012;-59
2021/10/01 01:30:40;;;;;;;;;;;;;;;21.18;54.66;101776.22;2076098;28;1979;-59
2021/10/01 01:31:55;;;;;;;;;;;;;;;21.22;55.08;101782.44;2076283;28;977;-59
2021/10/01 01:32:57;;;;;;;;;;;;;;;21.23;54.76;101779.72;2076240;28;954;-59
2021/10/01 01:33:59;;;;;;;;;;;;;;;21.22;55.43;101786.03;2076334;28;1031;-59
2021/10/01 01:35:10;;;;;;;;;;;;;;;21.21;54.83;101791.44;2076279;28;883;-59
2021/10/01 01:36:13;;;;;;;;;;;;;;;21.17;54.77;101785.22;2076107;28;777;-59
2021/10/01 01:37:16;;;;;;;;;;;;;;;21.23;54.58;101782.41;2076224;28;897;-58
2021/10/01 01:38:24;;;;;;;;;;;;;;;21.25;54.61;101780.56;2076305;28;989;-59
2021/10/01 01:39:25;;;;;;;;;;;;;;;21.23;54.83;101787.81;2075240;28;736;-59
2021/10/01 01:40:28;;;;;;;;;;;;;;;21.22;55.20;101793.19;2076240;28;929;-59
2021/10/01 01:41:28;;;;;;;;;;;;;;;;;;2075860;28;1048;-59
2021/10/01 01:42:29;;;;;;;;;;;;;;;21.22;54.79;101790.50;2076195;28;842;-59
2021/10/01 01:43:30;;;;;;;;;;;;;;;21.25;54.88;101787.75;2075467;28;818;-59
2021/10/01 01:44:31;;;;;;;;;;;;;;;21.22;55.24;101791.41;2067410;28;1285;-59
2021/10/01 01:45:36;;;;;;;;;;;;;;;21.24;55.08;101783.28;2068041;28;1103;-59
2021/10/01 01:46:37;;;;;;;;;;;;;;;21.26;54.62;101786.84;2068070;28;792;-59
2021/10/01 01:47:39;;;;;;;;;;;;;;;21.22;54.73;101798.59;2068103;28;1024;-59
2021/10/01 01:48:40;;;;;;;;;;;;;;;21.17;54.91;101794.22;2067998;28;848;-59
2021/10/01 01:49:42;;;;;;;;;;;;;;;21.25;54.53;101796.75;2068049;28;867;-59
2021/10/01 01:50:42;;;;;;;;;;;;;;;21.22;54.36;101798.59;2067924;28;1955;-59
2021/10/01 01:51:43;;;;;;;;;;;;;;;21.16;55.40;101800.53;2067893;28;791;-59
2021/10/01 01:52:43;;;;;;;;;;;;;;;;;;2068002;28;949;-59
2021/10/01 01:53:44;;;;;;;;;;;;;;;21.18;54.64;101793.28;2067986;28;842;-59
2021/10/01 01:54:45;;;;;;;;;;;;;;;21.15;55.74;101793.38;2067920;28;800;-59
2021/10/01 01:55:46;;;;;;;;;;;;;;;21.20;54.72;101800.47;2068104;28;764;-59
2021/10/01 01:56:47;;;;;;;;;;;;;;;21.15;55.68;101796.06;2067906;28;787;-59
2021/10/01 01:57:49;;;;;;;;;;;;;;;21.21;54.85;101802.22;2067968;28;837;-59
2021/10/01 01:58:50;;;;;;;;;;;;;;;21.18;54.84;101801.38;2067913;28;790;-59
2021/10/01 01:59:51;;;;;;;;;;;;;;;21.18;54.79;101797.78;2067973;28;792;-59
2021/10/01 02:00:51;;;;;;;;;;;;;;;21.15;54.85;101804.13;2067931;28;1009;-59
2021/10/01 02:01:52;;;;;;;;;;;;;;;21.17;54.68;101796.00;2067931;28;809;-59
2021/10/01 02:02:53;;;;;;;;;;;;;;;21.22;55.54;101803.97;2067639;28;1056;-59
2021/10/01 02:03:54;;;;;;;;;;;;;;;21.19;54.70;101802.25;2068004;28;1026;-59
2021/10/01 02:04:55;;;;;;;;;;;;;;;21.16;55.64;101795.13;2067937;28;1065;-59
2021/10/01 02:05:57;;;;;;;;;;;;;;;21.17;55.06;101801.41;2067536;28;837;-59
2021/10/01 02:06:58;;;;;;;;;;;;;;;21.17;55.24;101805.00;2067856;28;847;-59
2021/10/01 02:08:00;;;;;;;;;;;;;;;21.22;55.43;101801.28;2067947;28;1033;-59
2021/10/01 02:09:00;;;;;;;;;;;;;;;21.20;55.00;101800.47;2067805;28;903;-59
2021/10/01 02:10:01;;;;;;;;;;;;;;;21.20;55.31;101800.47;2067900;28;847;-59
2021/10/01 02:11:01;;;;;;;;;;;;;;;21.18;55.33;101805.88;2067591;28;1950;-59
2021/10/01 02:12:02;;;;;;;;;;;;;;;21.13;55.10;101800.59;2067949;28;792;-59
2021/10/01 02:13:03;;;;;;;;;;;;;;;21.16;54.95;101805.91;2067861;28;1434;-59
2021/10/01 02:14:05;;;;;;;;;;;;;;;21.22;54.98;101799.50;2059103;28;1600;-59
2021/10/01 02:15:05;;;;;;;;;;;;;;;;;;2059408;28;886;-59
2021/10/01 02:16:06;;;;;;;;;;;;;;;21.20;54.77;101800.47;2067668;28;1013;-60
2021/10/01 02:17:06;;;;;;;;;;;;;;;21.18;54.81;101795.09;2067899;28;993;-59
2021/10/01 02:18:08;;;;;;;;;;;;;;;21.18;55.16;101797.78;2067816;28;859;-59
2021/10/01 02:19:08;;;;;;;;;;;;;;;;;;2067672;28;903;-59
2021/10/01 02:20:09;;;;;;;;;;;;;;;21.19;54.78;101807.63;2067850;28;994;-59
2021/10/01 02:21:11;;;;;;;;;;;;;;;21.18;55.30;101803.16;2067777;28;1040;-59
2021/10/01 02:22:13;;;;;;;;;;;;;;;21.16;54.82;101800.53;2067782;28;1049;-59
2021/10/01 02:23:13;;;;;;;;;;;;;;;21.24;54.30;101807.53;2067776;28;891;-59
2021/10/01 02:24:13;;;;;;;;;;;;;;;;;;2067840;28;747;-59
2021/10/01 02:26:38;;;;;;;;;;;;;;;21.20;54.81;101817.50;2067826;28;730;-59
2021/10/01 02:27:43;;;;;;;;;;;;;;;21.20;55.04;101813.94;2067681;28;882;-59
2021/10/01 02:29:01;;;;;;;;;;;;;;;21.18;55.49;101816.66;2067754;28;859;-59
2021/10/01 02:30:10;;;;;;;;;;;;;;;21.20;55.31;101809.41;2067847;28;1048;-59
2021/10/01 02:31:16;;;;;;;;;;;;;;;21.22;54.84;101806.69;2067729;28;1910;-59
2021/10/01 02:32:22;;;;;;;;;;;;;;;21.17;55.19;101801.41;2067655;28;1735;-59
2021/10/01 02:33:28;;;;;;;;;;;;;;;21.19;54.05;101802.25;2067481;28;974;-59
2021/10/01 02:34:32;;;;;;;;;;;;;;;21.17;54.43;101807.69;2067724;28;788;-59
2021/10/01 02:35:33;;;;;;;;;;;;;;;21.15;54.99;101805.94;2067705;28;875;-59
2021/10/01 02:36:33;;;;;;;;;;;;;;;21.20;54.70;101805.84;2067716;28;994;-59
2021/10/01 02:37:33;;;;;;;;;;;;;;;21.17;54.89;101806.78;2067805;28;1033;-59
2021/10/01 02:38:34;;;;;;;;;;;;;;;21.18;55.10;101809.47;2067564;28;873;-59
2021/10/01 02:39:35;;;;;;;;;;;;;;;21.16;54.38;101811.31;2067717;28;1005;-59
2021/10/01 02:40:35;;;;;;;;;;;;;;;21.16;54.97;101803.22;2067595;28;796;-59
2021/10/01 02:41:35;;;;;;;;;;;;;;;21.17;54.77;101804.09;2067653;28;780;-59
2021/10/01 02:42:36;;;;;;;;;;;;;;;21.14;54.65;101809.53;2067697;28;819;-59
2021/10/01 02:43:36;;;;;;;;;;;;;;;21.17;54.88;101801.41;2067374;28;1344;-59
2021/10/01 02:44:37;;;;;;;;;;;;;;;21.12;54.61;101804.19;2067517;28;812;-59
2021/10/01 02:45:37;;;;;;;;;;;;;;;21.11;55.04;101805.13;2067564;28;973;-60
2021/10/01 02:46:37;;;;;;;;;;;;;;;21.16;54.69;101807.69;2067700;28;891;-59
2021/10/01 02:47:38;;;;;;;;;;;;;;;21.17;55.34;101802.31;2067626;28;1028;-59
2021/10/01 02:48:39;;;;;;;;;;;;;;;21.18;55.42;101804.06;2067668;28;918;-59
2021/10/01 02:49:40;;;;;;;;;;;;;;;21.14;55.73;101806.84;2067626;28;787;-60
2021/10/01 02:50:40;;;;;;;;;;;;;;;21.12;54.83;101803.28;2067351;28;1961;-59
2021/10/01 02:51:47;;;;;;;;;;;;;;;21.11;54.78;101759.31;2067520;28;925;-59
2021/10/01 02:52:50;;;;;;;;;;;;;;;21.13;55.39;101756.56;2067593;28;807;-59
2021/10/01 02:54:17;;;;;;;;;;;;;;;21.12;55.18;101750.31;2067617;28;891;-59
2021/10/01 02:55:20;;;;;;;;;;;;;;;21.15;54.93;101763.72;2065367;28;1189;-59
2021/10/01 02:56:24;;;;;;;;;;;;;;;21.20;55.49;101760.03;2067549;28;776;-59
2021/10/01 02:57:27;;;;;;;;;;;;;;;21.13;54.98;101746.69;2067453;28;887;-59
2021/10/01 02:58:32;;;;;;;;;;;;;;;21.16;54.91;101761.91;2067294;28;982;-59
2021/10/01 02:59:37;;;;;;;;;;;;;;;21.22;54.63;101831.84;2067488;28;891;-59
2021/10/01 03:00:37;;;;;;;;;;;;;;;21.24;54.56;101818.31;2067412;28;917;-60
2021/10/01 03:01:39;;;;;;;;;;;;;;;21.19;55.50;101813.03;2067421;28;1021;-59
2021/10/01 03:02:42;;;;;;;;;;;;;;;21.17;55.26;101815.78;2067426;28;1064;-59
2021/10/01 03:03:44;;;;;;;;;;;;;;;21.16;54.33;101816.69;2067534;28;902;-59
2021/10/01 03:04:45;;;;;;;;;;;;;;;21.18;55.44;101816.66;2067425;28;808;-59
2021/10/01 03:05:46;;;;;;;;;;;;;;;21.18;54.65;101812.16;2067495;28;824;-59
2021/10/01 03:06:47;;;;;;;;;;;;;;;21.18;54.97;101811.25;2067237;28;977;-59
2021/10/01 03:07:48;;;;;;;;;;;;;;;21.20;54.83;101817.50;2067464;28;834;-59
2021/10/01 03:08:50;;;;;;;;;;;;;;;21.22;54.98;101818.34;2067339;28;795;-59
2021/10/01 03:09:52;;;;;;;;;;;;;;;21.17;55.35;101818.47;2067449;28;982;-59
2021/10/01 03:10:53;;;;;;;;;;;;;;;21.22;54.81;101820.16;2067199;28;1963;-59
2021/10/01 03:11:55;;;;;;;;;;;;;;;21.22;55.31;101809.38;2067127;28;1229;-59
2021/10/01 03:12:56;;;;;;;;;;;;;;;21.17;55.32;101786.13;2067370;28;1001;-59
2021/10/01 03:13:56;;;;;;;;;;;;;;;;;;2067392;28;878;-59
2021/10/01 03:14:56;;;;;;;;;;;;;;;;;;2067159;28;994;-59
2021/10/01 03:15:57;;;;;;;;;;;;;;;21.25;54.33;101803.91;2066501;28;1173;-59
2021/10/01 03:16:59;;;;;;;;;;;;;;;21.24;54.18;101802.16;2066749;28;1032;-59
2021/10/01 03:17:59;;;;;;;;;;;;;;;21.29;54.45;101802.94;2067355;28;783;-59
2021/10/01 03:19:00;;;;;;;;;;;;;;;21.23;55.13;101803.06;2067292;28;989;-59
2021/10/01 03:20:00;;;;;;;;;;;;;;;21.24;54.40;101797.66;2067344;28;1001;-59
2021/10/01 03:21:02;;;;;;;;;;;;;;;21.24;54.16;101810.22;2067328;28;1009;-59
2021/10/01 03:22:02;;;;;;;;;;;;;;;21.25;54.15;101810.22;2067315;28;1384;-59
2021/10/01 03:23:03;;;;;;;;;;;;;;;21.26;54.95;101801.22;2067341;28;995;-59
2021/10/01 03:24:05;;;;;;;;;;;;;;;21.29;54.40;101805.63;2067316;28;631;-59
2021/10/01 03:25:06;;;;;;;;;;;;;;;21.26;54.70;101808.38;2067293;28;982;-59
2021/10/01 03:26:06;;;;;;;;;;;;;;;21.26;53.83;101813.78;2067243;28;1230;-59
2021/10/01 03:27:06;;;;;;;;;;;;;;;21.28;54.51;101812.84;2067294;28;961;-59
2021/10/01 03:28:06;;;;;;;;;;;;;;;21.26;54.21;101816.47;2066741;28;848;-59
2021/10/01 03:29:09;;;;;;;;;;;;;;;21.25;54.71;101820.09;2066697;28;1080;-60
2021/10/01 03:30:10;;;;;;;;;;;;;;;21.25;54.59;101815.59;2067084;28;1065;-59
2021/10/01 03:31:11;;;;;;;;;;;;;;;21.26;54.14;101816.47;2067245;28;1906;-59
2021/10/01 03:32:11;;;;;;;;;;;;;;;21.26;54.02;101812.00;2066708;28;831;-59
2021/10/01 03:33:11;;;;;;;;;;;;;;;21.24;53.96;101816.53;2066596;28;869;-59
2021/10/01 03:34:11;;;;;;;;;;;;;;;21.26;54.39;101813.78;2067230;28;1002;-59
2021/10/01 03:35:13;;;;;;;;;;;;;;;21.25;54.83;101821.00;2067276;28;1045;-59
2021/10/01 03:36:13;;;;;;;;;;;;;;;21.25;54.42;101810.22;2066893;28;871;-59
2021/10/01 03:37:14;;;;;;;;;;;;;;;21.28;54.64;101817.31;2066509;28;1677;-59
2021/10/01 03:38:14;;;;;;;;;;;;;;;21.27;54.07;101824.53;2066653;28;1002;-59
2021/10/01 03:39:14;;;;;;;;;;;;;;;21.30;53.79;101821.78;2067009;28;848;-59
2021/10/01 03:40:15;;;;;;;;;;;;;;;21.28;54.30;101820.03;2067302;28;979;-59
2021/10/01 03:41:15;;;;;;;;;;;;;;;21.28;53.90;101826.31;2066945;28;981;-59
2021/10/01 03:42:15;;;;;;;;;;;;;;;21.29;54.65;101821.81;2067163;28;916;-59
2021/10/01 03:43:16;;;;;;;;;;;;;;;21.29;53.85;101821.81;2067015;28;986;-59
2021/10/01 03:44:17;;;;;;;;;;;;;;;21.27;54.35;101823.63;2066647;28;1396;-59
2021/10/01 03:45:17;;;;;;;;;;;;;;;21.27;54.17;101819.16;2067010;28;1007;-59
2021/10/01 03:46:17;;;;;;;;;;;;;;;21.26;54.70;101827.25;2067019;28;974;-59
2021/10/01 03:47:18;;;;;;;;;;;;;;;21.25;54.33;101822.78;2067011;28;799;-59
2021/10/01 03:48:19;;;;;;;;;;;;;;;21.29;54.43;101824.50;2066974;28;1386;-60
2021/10/01 03:49:19;;;;;;;;;;;;;;;21.28;54.28;101822.72;2066946;28;990;-60
2021/10/01 03:50:19;;;;;;;;;;;;;;;21.29;54.35;101822.69;2066638;28;1890;-59
2021/10/01 03:51:20;;;;;;;;;;;;;;;21.31;54.24;101825.34;2066964;28;907;-59
2021/10/01 03:52:20;;;;;;;;;;;;;;;21.32;53.97;101827.13;2067049;28;879;-58
2021/10/01 03:53:20;;;;;;;;;;;;;;;21.30;54.41;101828.97;2067165;28;863;-58
2021/10/01 03:54:20;;;;;;;;;;;;;;;21.37;53.88;101818.97;2067031;28;966;-57
2021/10/01 03:55:21;;;;;;;;;;;;;;;21.37;54.05;101836.00;2066760;28;772;-57
2021/10/01 03:56:22;;;;;;;;;;;;;;;21.39;54.69;101830.59;2067036;28;1104;-56
2021/10/01 03:57:22;;;;;;;;;;;;;;;21.39;53.93;101836.00;2067096;28;1288;-57
2021/10/01 03:58:22;;;;;;;;;;;;;;;21.41;54.83;101835.03;2066952;28;879;-58
2021/10/01 03:59:22;;;;;;;;;;;;;;;21.40;54.66;101832.38;2067058;28;926;-57
2021/10/01 04:00:24;;;;;;;;;;;;;;;21.40;53.74;101833.25;2066983;28;911;-58
2021/10/01 04:01:24;;;;;;;;;;;;;;;21.35;53.69;101829.75;2067004;28;804;-59
2021/10/01 04:02:24;;;;;;;;;;;;;;;21.30;54.59;101829.88;2066553;28;862;-59
2021/10/01 04:03:24;;;;;;;;;;;;;;;21.69;53.96;101825.47;2066947;28;970;-59
2021/10/01 04:04:24;;;;;;;;;;;;;;;22.11;52.72;101824.50;2066867;28;793;-58
2021/10/01 04:05:25;;;;;;;;;;;;;;;22.28;52.81;101824.97;2067127;28;793;-58
2021/10/01 04:06:25;;;;;;;;;;;;;;;22.38;51.30;101816.63;2066942;28;870;-58
2021/10/01 04:07:25;;;;;;;;;;;;;;;22.44;51.29;101825.50;2067091;28;847;-58
2021/10/01 04:08:25;;;;;;;;;;;;;;;22.49;51.81;101828.06;2067102;28;899;-58
2021/10/01 04:09:25;;;;;;;;;;;;;;;22.58;50.53;101827.84;2066783;28;1033;-59
2021/10/01 04:10:25;;;;;;;;;;;;;;;22.59;50.82;101826.91;2067099;28;1965;-59
2021/10/01 04:11:26;;;;;;;;;;;;;;;22.68;51.32;101833.00;2066850;28;1222;-58
2021/10/01 04:12:27;;;;;;;;;;;;;;;22.72;51.04;101835.56;2066993;28;978;-58
2021/10/01 04:13:27;;;;;;;;;;;;;;;22.72;50.86;101832.84;2067025;28;799;-58
2021/10/01 04:14:27;;;;;;;;;;;;;;;22.77;50.51;101836.31;2067081;28;828;-58
2021/10/01 04:15:28;;;;;;;;;;;;;;;22.77;50.84;101825.53;2066908;28;961;-59
2021/10/01 04:16:28;;;;;;;;;;;;;;;22.79;50.47;101834.47;2066975;28;820;-58
2021/10/01 04:17:28;;;;;;;;;;;;;;;22.83;50.07;101827.19;2066978;28;869;-58
2021/10/01 04:18:28;;;;;;;;;;;;;;;22.86;50.24;101826.19;2066841;28;1093;-58
2021/10/01 04:19:29;;;;;;;;;;;;;;;22.89;50.47;101831.53;2066914;28;788;-59
2021/10/01 04:20:29;;;;;;;;;;;;;;;22.89;50.52;101834.22;2066797;28;1005;-58
2021/10/01 04:21:29;;;;;;;;;;;;;;;22.88;50.62;101836.06;2066758;28;803;-59
2021/10/01 04:22:30;;;;;;;;;;;;;;;22.96;50.16;101838.53;2066999;28;907;-58
2021/10/01 04:23:30;;;;;;;;;;;;;;;22.97;50.46;101834.91;2067027;28;875;-59
2021/10/01 04:24:30;;;;;;;;;;;;;;;22.94;50.28;101827.78;2066916;28;848;-59
2021/10/01 04:25:31;;;;;;;;;;;;;;;22.98;50.38;101828.56;2066976;28;974;-59
2021/10/01 04:26:31;;;;;;;;;;;;;;;22.95;50.30;101826.84;2066875;28;855;-59
2021/10/01 04:27:31;;;;;;;;;;;;;;;22.95;51.18;101829.56;2066973;28;819;-59
2021/10/01 04:28:31;;;;;;;;;;;;;;;23.03;49.90;101834.72;2066922;28;820;-59
2021/10/01 04:29:32;;;;;;;;;;;;;;;22.99;50.53;101832.13;2066718;28;891;-59
2021/10/01 04:30:34;;;;;;;;;;;;;;;23.02;50.85;101832.06;2066850;28;1980;-59
2021/10/01 04:31:34;;;;;;;;;;;;;;;23.02;50.25;101832.06;2066888;28;811;-59
2021/10/01 04:32:38;;;;;;;;;;;;;;;22.99;50.71;101837.53;2067109;28;910;-59
2021/10/01 04:33:41;;;;;;;;;;;;;;;22.97;50.08;101829.50;2066965;28;815;-59
2021/10/01 04:35:14;;;;;;;;;;;;;;;23.04;50.24;101835.59;2067063;28;824;-59
2021/10/01 04:36:08;;;;;;;;;;;;;;;23.07;50.08;101825.59;2064874;28;1076;-59
2021/10/01 04:37:08;;;;;;;;;;;;;;;23.05;50.93;101834.66;2066696;28;1005;-59
2021/10/01 04:38:08;;;;;;;;;;;;;;;23.06;50.27;101833.75;2066871;28;1037;-59
2021/10/01 04:39:08;;;;;;;;;;;;;;;23.05;49.76;101837.38;2066844;28;830;-59
2021/10/01 04:40:08;;;;;;;;;;;;;;;23.06;49.99;101833.75;2074160;28;965;-59
2021/10/01 04:41:09;;;;;;;;;;;;;;;23.08;50.91;101829.19;2074513;28;778;-59
2021/10/01 04:42:09;;;;;;;;;;;;;;;23.04;50.68;101828.41;2066939;28;1048;-59
2021/10/01 04:43:09;;;;;;;;;;;;;;;23.09;50.57;101834.56;2066795;28;871;-59
2021/10/01 04:44:11;;;;;;;;;;;;;;;23.06;50.03;101826.53;2071833;28;1181;-59
2021/10/01 04:45:11;;;;;;;;;;;;;;;23.04;50.12;101835.59;2074913;28;878;-59
2021/10/01 04:46:11;;;;;;;;;;;;;;;23.04;50.22;101839.19;2074944;28;772;-59
2021/10/01 04:47:12;;;;;;;;;;;;;;;22.94;50.36;101835.88;2075011;28;976;-59
2021/10/01 04:48:12;;;;;;;;;;;;;;;23.04;49.93;101831.09;2074788;28;961;-59
2021/10/01 04:49:12;;;;;;;;;;;;;;;23.04;50.13;101836.50;2074877;28;1077;-59
2021/10/01 04:50:12;;;;;;;;;;;;;;;23.00;50.20;101840.22;2075093;28;736;-59
2021/10/01 04:51:12;;;;;;;;;;;;;;;23.12;50.12;101838.97;2074800;28;1943;-59
2021/10/01 04:52:13;;;;;;;;;;;;;;;23.03;50.84;101844.63;2074893;28;848;-59
2021/10/01 04:53:13;;;;;;;;;;;;;;;23.04;50.35;101838.31;2074865;28;846;-59
2021/10/01 04:54:14;;;;;;;;;;;;;;;23.02;50.60;101834.75;2074676;28;811;-59
2021/10/01 04:55:14;;;;;;;;;;;;;;;23.09;50.25;101847.16;2074849;28;912;-59
2021/10/01 04:56:14;;;;;;;;;;;;;;;23.06;50.47;101841.84;2075013;28;966;-59
2021/10/01 04:57:14;;;;;;;;;;;;;;;23.08;50.52;101842.69;2074835;28;771;-59
2021/10/01 04:58:14;;;;;;;;;;;;;;;23.11;49.98;101848.00;2074986;28;892;-59
2021/10/01 04:59:15;;;;;;;;;;;;;;;23.09;50.16;101842.66;2074845;28;796;-59
2021/10/01 05:00:15;;;;;;;;;;;;;;;23.09;50.16;101850.78;2074683;28;847;-59
2021/10/01 05:01:15;;;;;;;;;;;;;;;23.03;50.98;101837.44;2074866;28;855;-59
2021/10/01 05:02:15;;;;;;;;;;;;;;;23.17;50.45;101836.16;2074636;28;1299;-58
2021/10/01 05:03:15;;;;;;;;;;;;;;;23.14;49.98;101829.00;2074694;28;1013;-59
2021/10/01 05:04:16;;;;;;;;;;;;;;;23.10;50.71;101830.03;2074885;28;985;-58
2021/10/01 05:05:16;;;;;;;;;;;;;;;23.10;50.03;101830.94;2074963;28;1059;-58
2021/10/01 05:06:16;;;;;;;;;;;;;;;23.09;50.44;101829.16;2074551;28;831;-58
2021/10/01 05:07:19;;;;;;;;;;;;;;;23.11;50.25;101831.81;2074861;28;882;-59
2021/10/01 05:08:19;;;;;;;;;;;;;;;23.13;50.96;101834.47;2074896;28;796;-59
2021/10/01 05:09:19;;;;;;;;;;;;;;;23.17;50.12;101826.22;2074896;28;898;-58
2021/10/01 05:10:20;;;;;;;;;;;;;;;23.11;50.61;101829.09;2074811;28;1906;-58
2021/10/01 05:11:20;;;;;;;;;;;;;;;23.05;50.63;101835.56;2074657;28;1184;-54
2021/10/01 05:12:20;;;;;;;;;;;;;;;23.10;50.03;101828.22;2074875;28;839;-54
2021/10/01 05:13:20;;;;;;;;;;;;;;;23.12;50.09;101828.16;2075183;28;790;-54
2021/10/01 05:14:20;;;;;;;;;;;;;;;23.13;50.15;101837.19;2076329;28;859;-54
2021/10/01 05:15:21;;;;;;;;;;;;;;;23.18;50.70;101837.94;2076289;28;1311;-54
2021/10/01 05:16:22;;;;;;;;;;;;;;;23.19;50.03;101834.31;2076308;28;803;-54
2021/10/01 05:17:25;;;;;;;;;;;;;;;23.24;49.80;101837.78;2076312;28;811;-54
2021/10/01 05:18:25;;;;;;;;;;;;;;;23.17;50.22;101842.44;2076376;28;905;-54
2021/10/01 05:19:25;;;;;;;;;;;;;;;23.17;50.37;101842.44;2076236;28;775;-54
2021/10/01 05:20:25;;;;;;;;;;;;;;;23.17;50.80;101838.88;2076300;28;863;-54
2021/10/01 05:21:26;;;;;;;;;;;;;;;23.22;49.73;101837.81;2076245;28;917;-54
2021/10/01 05:22:26;;;;;;;;;;;;;;;23.24;50.07;101843.19;2075430;28;2335;-54
2021/10/01 05:23:26;;;;;;;;;;;;;;;23.24;49.80;101837.78;2075782;28;791;-53
2021/10/01 05:24:27;;;;;;;;;;;;;;;23.28;50.24;101841.28;2076319;28;1199;-53
2021/10/01 05:25:27;;;;;;;;;;;;;;;23.26;50.26;101829.63;2076275;28;1013;-53
2021/10/01 05:26:27;;;;;;;;;;;;;;;23.27;50.33;101834.97;2067441;28;818;-53
2021/10/01 05:27:28;;;;;;;;;;;;;;;23.15;50.49;101832.63;2067726;28;763;-53
2021/10/01 05:28:28;;;;;;;;;;;;;;;23.23;49.92;101841.44;2076288;28;780;-53